Time;durP1;ratioP1;P1;durP2;ratioP2;P2;SDS_P1;SDS_P2;PMS_P1;PMS_P2;Temp;Humidity;BMP_temperature;BMP_pressure;BME280_temperature;BME280_humidity;BME280_pressure;Samples;Min_cycle;Max_cycle;Signal;HPM_P1;HPM_P2
2021/07/01 00:01:30;;;;;;;8.90;3.95;;;;;;;18.09;66.58;99648.59;2056316;86;32023;-59
2021/07/01 00:04:32;;;;;;;6.45;3.27;;;;;;;18.01;66.66;99649.30;2056610;86;33067;-59
2021/07/01 00:07:34;;;;;;;7.70;3.58;;;;;;;17.95;66.74;99653.41;2056613;86;29604;-59
2021/07/01 00:10:37;;;;;;;9.70;3.40;;;;;;;17.90;66.78;99649.77;2056741;86;27640;-58
2021/07/01 00:13:39;;;;;;;6.17;3.12;;;;;;;17.86;66.89;99648.32;2056582;86;28705;-58
2021/07/01 00:16:40;;;;;;;3.67;2.72;;;;;;;17.82;66.83;99646.03;2056255;86;31148;-58
2021/07/01 00:19:42;;;;;;;4.30;2.83;;;;;;;17.57;66.93;99626.09;2056534;86;33867;-57
2021/07/01 00:22:44;;;;;;;5.78;2.70;;;;;;;17.57;66.93;99626.09;2056672;86;30548;-58
2021/07/01 00:25:46;;;;;;;6.65;3.20;;;;;;;17.65;66.96;99644.84;2056775;86;27697;-58
2021/07/01 00:28:48;;;;;;;3.60;2.30;;;;;;;17.55;66.95;99644.33;2056727;86;28624;-58
2021/07/01 00:31:50;;;;;;;4.03;2.92;;;;;;;17.55;66.95;99644.33;2056523;86;31070;-59
2021/07/01 00:34:51;;;;;;;4.65;2.30;;;;;;;17.50;66.86;99635.75;2056564;86;32920;-58
2021/07/01 00:37:53;;;;;;;3.62;2.52;;;;;;;17.50;66.86;99635.75;2056647;86;29558;-58
2021/07/01 00:40:56;;;;;;;5.40;2.52;;;;;;;17.49;66.95;99635.39;2056735;86;27514;-58
2021/07/01 00:43:58;;;;;;;5.30;2.42;;;;;;;17.50;67.16;99630.33;2056284;86;29852;-58
2021/07/01 00:46:59;;;;;;;3.15;2.33;;;;;;;17.51;67.18;99629.85;2052148;86;32068;-59
2021/07/01 00:50:06;;;;;;;3.10;2.65;;;;;;;17.26;67.47;99589.58;2047349;87;32924;-58
2021/07/01 00:53:08;;;;;;;3.58;2.20;;;;;;;17.51;67.35;99634.75;2046888;87;29733;-59
2021/07/01 00:56:10;;;;;;;2.85;2.42;;;;;;;17.53;67.35;99629.22;2047577;87;27697;-58
2021/07/01 00:59:12;;;;;;;5.20;2.12;;;;;;;17.40;67.45;99596.96;2047512;87;28694;-59
2021/07/01 01:02:14;;;;;;;5.50;2.52;;;;;;;17.48;67.51;99601.69;2047365;87;31089;-59
2021/07/01 01:05:16;;;;;;;6.58;2.02;;;;;;;17.66;67.60;99619.47;2048100;87;33551;-59
2021/07/01 01:08:17;;;;;;;3.15;1.75;;;;;;;17.73;67.52;99622.83;2047369;87;29728;-59
2021/07/01 01:11:24;;;;;;;3.33;2.05;;;;;;;17.72;67.57;99591.83;2046869;86;27466;-58
2021/07/01 01:14:23;;;;;;;4.23;2.63;;;;;;;17.72;67.57;99591.83;2046938;86;28906;-59
2021/07/01 01:17:24;;;;;;;5.75;2.42;;;;;;;17.92;67.46;99611.19;2047146;87;30551;-58
2021/07/01 01:20:27;;;;;;;2.85;2.05;;;;;;;17.98;67.50;99610.28;2049999;86;33687;-58
2021/07/01 01:23:29;;;;;;;2.55;2.15;;;;;;;17.89;67.41;99585.72;2067691;85;29745;-59
2021/07/01 01:26:31;;;;;;;2.83;1.80;;;;;;;18.04;67.34;99604.30;2050251;86;27550;-58
2021/07/01 01:29:33;;;;;;;2.02;1.90;;;;;;;18.06;67.30;99605.02;2032287;87;29543;-59
2021/07/01 01:32:35;;;;;;;4.75;1.80;;;;;;;17.99;67.03;99578.98;2047294;87;31222;-59
2021/07/01 01:35:39;;;;;;;6.15;1.60;;;;;;;18.09;67.08;99592.55;2047334;87;33787;-59
2021/07/01 01:38:41;;;;;;;5.72;3.17;;;;;;;18.11;66.91;99583.78;2059050;86;29739;-58
2021/07/01 01:41:43;;;;;;;4.20;2.98;;;;;;;18.14;66.68;99584.82;2047048;87;27457;-57
2021/07/01 01:44:45;;;;;;;3.65;2.37;;;;;;;18.15;66.71;99583.83;2047249;87;28722;-59
2021/07/01 01:47:50;;;;;;;5.05;2.80;;;;;;;18.16;66.66;99592.83;2052578;86;31101;-58
2021/07/01 01:50:52;;;;;;;3.55;2.05;;;;;;;18.15;66.68;99595.19;2056577;86;32403;-57
2021/07/01 01:53:54;;;;;;;3.00;2.33;;;;;;;18.14;66.65;99590.75;2056551;86;30752;-57
2021/07/01 01:56:56;;;;;;;5.08;2.40;;;;;;;18.12;66.54;99594.95;2056600;86;27649;-59
2021/07/01 01:59:58;;;;;;;4.42;2.27;;;;;;;18.08;66.41;99596.25;2056435;86;29660;-59
2021/07/01 02:03:01;;;;;;;5.05;2.52;;;;;;;17.95;66.48;99586.16;2056555;86;31008;-59
2021/07/01 02:06:05;;;;;;;3.37;2.62;;;;;;;17.99;66.41;99593.89;2056502;86;33153;-59
2021/07/01 02:09:07;;;;;;;5.37;2.40;;;;;;;17.95;66.42;99593.78;2056662;86;29709;-59
2021/07/01 02:12:09;;;;;;;4.75;2.62;;;;;;;17.90;66.53;99593.34;2056513;86;27529;-59
2021/07/01 02:15:14;;;;;;;5.55;2.20;;;;;;;17.85;66.52;99590.22;2056750;86;28816;-59
2021/07/01 02:18:15;;;;;;;6.33;2.33;;;;;;;17.82;66.64;99591.34;2056734;86;31889;-58
2021/07/01 02:21:18;;;;;;;4.17;2.42;;;;;;;17.79;66.64;99590.77;2056655;86;33927;-58
2021/07/01 02:24:20;;;;;;;6.53;2.33;;;;;;;17.75;66.76;99587.49;2056678;86;30479;-59
2021/07/01 02:27:22;;;;;;;3.92;2.25;;;;;;;17.71;66.71;99595.53;2056709;86;27610;-58
2021/07/01 02:30:24;;;;;;;5.42;2.67;;;;;;;17.68;66.76;99593.09;2056624;86;29554;-58
2021/07/01 02:33:26;;;;;;;4.97;3.05;;;;;;;17.64;66.82;99594.37;2056772;86;31059;-59
2021/07/01 02:36:27;;;;;;;6.53;3.08;;;;;;;17.60;66.96;99596.50;2056716;86;33825;-59
2021/07/01 02:39:29;;;;;;;5.53;2.20;;;;;;;17.57;66.93;99604.91;2056815;86;29681;-59
2021/07/01 02:42:31;;;;;;;5.85;2.27;;;;;;;17.54;67.10;99600.63;2056846;86;27595;-59
2021/07/01 02:45:33;;;;;;;11.45;2.67;;;;;;;17.54;67.22;99604.69;2056405;86;28808;-59
2021/07/01 02:48:34;;;;;;;3.33;2.02;;;;;;;17.57;67.39;99613.03;2056338;86;31319;-59
2021/07/01 02:51:36;;;;;;;4.28;2.58;;;;;;;17.57;67.37;99619.32;2056672;86;33092;-58
2021/07/01 02:54:38;;;;;;;3.10;1.90;;;;;;;17.64;67.54;99626.87;2056696;86;29766;-59
2021/07/01 02:57:39;;;;;;;4.70;2.30;;;;;;;17.54;67.55;99606.05;2056642;86;27604;-58
2021/07/01 03:00:41;;;;;;;7.25;2.47;;;;;;;17.71;67.60;99628.88;2056580;86;28449;-59
2021/07/01 03:03:43;;;;;;;12.88;9.38;;;;;;;17.75;67.61;99628.97;2056667;86;30491;-58
2021/07/01 03:06:45;;;;;;;6.90;5.37;;;;;;;17.78;67.47;99633.28;2056644;86;33756;-59
2021/07/01 03:09:47;;;;;;;9.90;4.92;;;;;;;17.80;67.54;99630.41;2056578;86;29697;-59
2021/07/01 03:12:48;;;;;;;4.33;3.08;;;;;;;17.83;67.57;99627.43;2056561;86;27560;-58
2021/07/01 03:15:50;;;;;;;10.00;2.37;;;;;;;17.73;67.46;99603.03;2056607;86;28702;-58
2021/07/01 03:18:53;;;;;;;3.52;2.50;;;;;;;17.92;67.54;99626.58;2056682;86;31148;-64
2021/07/01 03:21:55;;;;;;;5.80;2.12;;;;;;;17.99;67.73;99630.97;2056761;86;33756;-66
2021/07/01 03:24:56;;;;;;;5.03;2.15;;;;;;;18.05;67.63;99625.84;2056373;86;30626;-64
2021/07/01 03:27:58;;;;;;;5.00;2.05;;;;;;;18.10;67.34;99627.27;2056784;86;27564;-58
2021/07/01 03:31:00;;;;;;;5.97;2.20;;;;;;;18.14;67.14;99627.36;2056690;86;28862;-60
2021/07/01 03:34:02;;;;;;;2.90;2.30;;;;;;;18.19;67.38;99628.64;2056599;86;31075;-60
2021/07/01 03:37:04;;;;;;;6.10;2.08;;;;;;;18.24;67.38;99631.42;2056518;85;32996;-57
2021/07/01 03:40:10;;;;;;;7.30;6.05;;;;;;;18.27;67.31;99623.86;2056461;86;30467;-58
2021/07/01 03:43:12;;;;;;;2.55;2.35;;;;;;;18.31;67.10;99628.48;2056508;86;27523;-58
2021/07/01 03:46:15;;;;;;;3.58;2.22;;;;;;;18.34;67.08;99625.49;2056811;86;28785;-58
2021/07/01 03:49:17;;;;;;;5.78;2.17;;;;;;;18.37;66.99;99627.41;2056274;86;31113;-58
2021/07/01 03:52:18;;;;;;;4.15;2.08;;;;;;;18.42;66.90;99628.84;2056610;86;33868;-58
2021/07/01 03:55:20;;;;;;;5.87;3.12;;;;;;;18.45;66.76;99630.76;2056728;86;29604;-58
2021/07/01 03:58:22;;;;;;;4.33;2.70;;;;;;;18.48;66.70;99622.34;2056691;86;27621;-59
2021/07/01 04:01:24;;;;;;;2.62;2.42;;;;;;;18.56;66.80;99618.90;2056766;86;28628;-58
2021/07/01 04:04:26;;;;;;;6.15;2.40;;;;;;;18.68;66.69;99620.48;2056611;86;31984;-57
2021/07/01 04:07:27;;;;;;;7.05;2.10;;;;;;;18.79;66.72;99626.21;2056532;86;33709;-58
2021/07/01 04:10:29;;;;;;;4.97;1.95;;;;;;;18.87;66.35;99627.35;2056700;86;29673;-58
2021/07/01 04:13:31;;;;;;;3.95;1.92;;;;;;;18.93;66.28;99633.05;2056729;86;27518;-58
2021/07/01 04:16:32;;;;;;;6.37;1.72;;;;;;;19.00;66.17;99637.41;2056617;86;28710;-58
2021/07/01 04:19:35;;;;;;;1.45;1.35;;;;;;;19.09;65.93;99638.39;2056255;86;30726;-59
2021/07/01 04:22:36;;;;;;;5.17;2.00;;;;;;;19.19;65.85;99633.80;2056598;86;33686;-58
2021/07/01 04:25:38;;;;;;;3.92;2.62;;;;;;;19.30;65.83;99638.16;2056633;86;29666;-58
2021/07/01 04:28:40;;;;;;;7.97;2.25;;;;;;;19.38;65.74;99638.29;2056655;86;27541;-59
2021/07/01 04:31:42;;;;;;;3.92;1.60;;;;;;;19.48;65.65;99642.32;2056617;86;28872;-59
2021/07/01 04:34:43;;;;;;;5.83;1.80;;;;;;;19.61;65.60;99651.98;2056556;86;31062;-59
2021/07/01 04:37:45;;;;;;;3.08;1.92;;;;;;;19.75;65.46;99655.54;2056526;86;33772;-59
2021/07/01 04:40:47;;;;;;;3.47;2.15;;;;;;;19.87;65.37;99656.22;2056625;86;29684;-59
2021/07/01 04:43:49;;;;;;;1.70;1.50;;;;;;;19.98;65.07;99665.52;2056723;86;27483;-58
2021/07/01 04:46:53;;;;;;;5.17;1.95;;;;;;;20.04;64.87;99667.63;2056636;86;28724;-59
2021/07/01 04:49:54;;;;;;;2.30;1.80;;;;;;;20.09;64.76;99670.41;2047377;86;31086;-59
2021/07/01 04:52:56;;;;;;;2.92;2.00;;;;;;;20.13;64.35;99674.50;2047378;86;33057;-61
2021/07/01 04:55:58;;;;;;;5.78;2.20;;;;;;;20.15;64.35;99672.48;2047422;86;29733;-60
2021/07/01 04:59:00;;;;;;;3.50;2.05;;;;;;;20.18;64.39;99673.06;2014675;87;27448;-60
2021/07/01 05:02:03;;;;;;;5.53;2.12;;;;;;;20.22;64.14;99670.00;2036745;86;29533;-60
2021/07/01 05:05:06;;;;;;;8.85;2.25;;;;;;;20.26;64.04;99668.20;2046880;87;31871;-60
2021/07/01 05:08:08;;;;;;;6.75;1.87;;;;;;;20.33;63.87;99671.16;2047239;87;33012;-59
2021/07/01 05:11:09;;;;;;;3.05;2.00;;;;;;;20.38;63.56;99670.16;2047432;87;29666;-59
2021/07/01 05:14:11;;;;;;;7.85;5.40;;;;;;;20.46;63.43;99668.02;2047436;87;27582;-60
2021/07/01 05:17:14;;;;;;;6.75;2.92;;;;;;;20.54;63.32;99676.77;2047412;86;29572;-59
2021/07/01 05:20:16;;;;;;;7.60;2.10;;;;;;;20.61;63.04;99671.06;2047426;87;31073;-60
2021/07/01 05:23:18;;;;;;;3.65;1.75;;;;;;;20.71;63.16;99665.01;2047462;86;33259;-59
2021/07/01 05:26:20;;;;;;;6.75;2.00;;;;;;;20.91;63.17;99665.72;2047505;87;30557;-60
2021/07/01 05:29:21;;;;;;;2.72;1.80;;;;;;;21.19;62.87;99675.09;2047613;86;27520;-59
2021/07/01 05:32:23;;;;;;;4.33;1.67;;;;;;;21.37;62.32;99675.53;2047541;87;28729;-59
2021/07/01 05:35:25;;;;;;;3.27;1.60;;;;;;;21.53;62.26;99675.62;2047509;87;31234;-60
2021/07/01 05:38:27;;;;;;;4.22;1.50;;;;;;;21.67;61.77;99682.37;2047242;87;32978;-60
2021/07/01 05:41:29;;;;;;;1.77;1.37;;;;;;;21.81;61.65;99678.66;2047570;86;29732;-60
2021/07/01 05:44:30;;;;;;;4.45;1.90;;;;;;;21.91;61.18;99689.44;2047637;86;27562;-61
2021/07/01 05:47:36;;;;;;;1.42;1.32;;;;;;;21.94;60.87;99692.68;2047535;86;28723;-60
2021/07/01 05:50:44;;;;;;;3.55;1.12;;;;;;;21.92;60.41;99691.98;2047466;87;32309;-59
2021/07/01 05:53:58;;;;;;;3.75;1.50;;;;;;;21.81;60.45;99689.05;2047608;86;32993;-60
2021/07/01 05:56:51;;;;;;;3.30;1.37;;;;;;;21.78;60.66;99685.80;2046297;86;30197;-60
2021/07/01 05:59:53;;;;;;;5.47;1.60;;;;;;;21.74;60.93;99693.47;2047578;86;27503;-59
2021/07/01 06:02:54;;;;;;;4.83;1.52;;;;;;;21.71;60.90;99695.16;2080512;85;28702;-60
2021/07/01 06:06:00;;;;;;;2.20;1.12;;;;;;;21.72;61.44;99700.08;2081574;85;31826;-60
2021/07/01 06:09:03;;;;;;;5.67;1.42;;;;;;;21.77;61.65;99701.81;2082012;85;33797;-59
2021/07/01 06:12:05;;;;;;;6.95;1.70;;;;;;;21.83;61.14;99699.81;2061207;85;29693;-60
2021/07/01 06:15:08;;;;;;;6.05;1.75;;;;;;;21.81;61.02;99699.95;2047780;87;27445;-59
2021/07/01 06:18:10;;;;;;;3.70;1.50;;;;;;;21.83;61.09;99692.99;2047281;87;28637;-60
2021/07/01 06:21:12;;;;;;;3.95;1.50;;;;;;;21.86;61.29;99700.81;2047484;87;31260;-60
2021/07/01 06:24:15;;;;;;;3.47;1.70;;;;;;;21.83;60.94;99700.65;2047554;86;33054;-60
2021/07/01 06:27:22;;;;;;;2.17;1.47;;;;;;;21.79;61.10;99694.33;2047271;87;29754;-60
2021/07/01 06:30:22;;;;;;;6.55;1.62;;;;;;;21.77;60.98;99693.11;2047460;86;27488;-60
2021/07/01 06:33:24;;;;;;;7.28;2.70;;;;;;;21.78;61.22;99700.28;2047573;87;28616;-60
2021/07/01 06:36:28;;;;;;;6.58;1.75;;;;;;;21.78;61.23;99708.45;2047426;87;31086;-60
2021/07/01 06:39:31;;;;;;;2.75;1.92;;;;;;;21.83;61.32;99703.37;2047629;87;32691;-60
2021/07/01 06:42:34;;;;;;;1.75;1.62;;;;;;;21.89;61.19;99709.20;2047569;86;30602;-60
2021/07/01 06:45:36;;;;;;;2.00;1.80;;;;;;;21.98;61.30;99704.98;2047442;87;27546;-60
2021/07/01 06:48:39;;;;;;;6.10;1.98;;;;;;;22.22;61.28;99699.75;2047378;87;29424;-60
2021/07/01 06:51:42;;;;;;;5.67;2.12;;;;;;;22.41;60.90;99705.41;2047548;87;31185;-60
2021/07/01 06:54:44;;;;;;;4.60;2.90;;;;;;;22.61;60.95;99697.28;2047448;87;32970;-59
2021/07/01 06:57:46;;;;;;;8.78;2.50;;;;;;;22.87;60.55;99701.71;2047450;87;29851;-60
2021/07/01 07:00:49;;;;;;;6.20;1.85;;;;;;;23.25;60.58;99702.55;2047679;87;27469;-60
2021/07/01 07:03:51;;;;;;;3.30;1.70;;;;;;;23.62;59.67;99703.82;2047729;87;28888;-60
2021/07/01 07:06:54;;;;;;;4.83;3.50;;;;;;;23.91;59.20;99709.70;2047452;87;31288;-60
2021/07/01 07:09:57;;;;;;;5.05;2.08;;;;;;;24.18;58.40;99706.16;2047580;87;33020;-60
2021/07/01 07:12:58;;;;;;;3.58;2.30;;;;;;;24.44;57.72;99703.09;2047471;87;29864;-58
2021/07/01 07:16:00;;;;;;;5.97;1.60;;;;;;;24.79;57.98;99704.08;2047641;86;27485;-59
2021/07/01 07:19:03;;;;;;;6.42;1.50;;;;;;;25.21;57.50;99701.28;2054200;86;29650;-58
2021/07/01 07:22:05;;;;;;;3.25;1.55;;;;;;;25.58;56.87;99704.17;2067307;86;31129;-58
2021/07/01 07:25:11;;;;;;;2.25;1.90;;;;;;;25.87;56.28;99705.22;2064850;85;33111;-59
2021/07/01 07:28:14;;;;;;;5.50;2.00;;;;;;;25.97;55.24;99700.27;2047535;87;29895;-59
2021/07/01 07:31:24;;;;;;;2.83;1.75;;;;;;;26.24;55.28;99701.98;2011806;87;27519;-59
2021/07/01 07:34:24;;;;;;;3.17;1.52;;;;;;;26.79;54.82;99698.74;2047332;86;28708;-59
2021/07/01 07:37:29;;;;;;;1.62;1.20;;;;;;;27.72;54.53;99701.38;2047604;87;31141;-59
2021/07/01 07:40:32;;;;;;;2.87;1.92;;;;;;;28.64;53.30;99697.47;2047263;87;33167;-60
2021/07/01 07:43:36;;;;;;;6.12;1.87;;;;;;;29.39;51.46;99699.20;2047570;87;29829;-59
2021/07/01 07:46:38;;;;;;;2.00;1.47;;;;;;;30.11;50.23;99690.08;2047594;86;27518;-59
2021/07/01 07:49:42;;;;;;;5.00;1.60;;;;;;;30.61;49.12;99690.78;2052805;86;28605;-59
2021/07/01 07:52:51;;;;;;;4.40;1.65;;;;;;;31.09;48.49;99681.02;2056682;86;32095;-59
2021/07/01 07:56:06;;;;;;;3.10;1.37;;;;;;;31.80;47.78;99677.45;2056653;86;32986;-59
2021/07/01 07:59:13;;;;;;;3.42;1.50;;;;;;;32.39;46.34;99677.45;2056565;86;30429;-59
2021/07/01 08:02:51;;;;;;;5.08;1.72;;;;;;;33.01;44.82;99676.27;2013674;88;27549;-59
2021/07/01 08:05:55;;;;;;;2.80;1.62;;;;;;;32.93;43.65;99685.80;2014256;88;29563;-60
2021/07/01 08:09:00;;;;;;;2.37;1.37;;;;;;;32.73;43.19;99684.71;2014356;88;31173;-59
2021/07/01 08:12:02;;;;;;;3.33;1.50;;;;;;;32.78;41.67;99682.60;2056540;86;33798;-59
2021/07/01 08:15:05;;;;;;;2.92;1.55;;;;;;;32.93;41.50;99681.63;2056452;86;29757;-59
2021/07/01 08:18:08;;;;;;;1.52;1.40;;;;;;;33.30;40.97;99685.58;2056768;86;27746;-59
2021/07/01 08:21:13;;;;;;;2.87;1.77;;;;;;;33.43;39.87;99688.65;2056653;86;28745;-59
2021/07/01 08:24:15;;;;;;;3.47;2.37;;;;;;;33.46;38.93;99687.34;2056648;86;31073;-59
2021/07/01 08:27:18;;;;;;;6.87;1.37;;;;;;;33.44;38.68;99683.41;2056282;86;33164;-60
2021/07/01 08:30:23;;;;;;;7.03;1.45;;;;;;;33.65;38.34;99694.14;2056762;86;29734;-60
2021/07/01 08:33:30;;;;;;;2.50;1.27;;;;;;;34.02;37.76;99682.17;2056723;86;27474;-59
2021/07/01 08:36:34;;;;;;;2.12;1.27;;;;;;;34.34;36.93;99678.03;2056579;85;28716;-60
2021/07/01 08:39:36;;;;;;;;;;;;;;;34.55;35.50;99668.19;2059042;86;30902;-60
2021/07/01 08:42:39;;;;;;;1.95;1.20;;;;;;;34.20;35.13;99680.30;2056611;86;33060;-60
2021/07/01 08:46:09;;;;;;;3.67;1.50;;;;;;;33.75;35.17;99682.71;2056755;86;29681;-59
2021/07/01 08:49:39;;;;;;;4.47;1.82;;;;;;;33.16;34.97;99682.73;2028869;87;27490;-60
2021/07/01 08:53:10;;;;;;;1.60;1.42;;;;;;;32.52;34.93;99676.38;2040523;87;28702;-60
2021/07/01 08:56:12;;;;;;;3.62;1.42;;;;;;;32.09;34.62;99674.11;2042354;87;31103;-59
2021/07/01 08:59:17;;;;;;;2.17;1.30;;;;;;;32.07;35.67;99670.17;2042114;86;33788;-61
2021/07/01 09:02:23;;;;;;;1.45;1.20;;;;;;;32.41;35.65;99670.58;2042122;87;30382;-59
2021/07/01 09:05:28;;;;;;;3.20;1.30;;;;;;;32.82;35.15;99671.38;2040886;86;27569;-60
2021/07/01 09:08:31;;;;;;;3.30;1.65;;;;;;;32.76;35.03;99673.67;2042255;87;28700;-59
2021/07/01 09:11:41;;;;;;;2.97;1.27;;;;;;;32.48;34.83;99667.70;2042436;87;30994;-59
2021/07/01 09:14:43;;;;;;;3.42;1.15;;;;;;;32.20;34.16;99671.05;2041834;87;34082;-60
2021/07/01 09:17:48;;;;;;;1.05;0.98;;;;;;;32.17;34.89;99665.45;2042136;87;30407;-60
2021/07/01 09:20:52;;;;;;;2.60;1.15;;;;;;;32.36;34.81;99658.51;2042374;86;27537;-61
2021/07/01 09:24:00;;;;;;;2.95;1.15;;;;;;;32.31;34.70;99666.15;2042195;86;28621;-60
2021/07/01 09:27:10;;;;;;;0.90;0.90;;;;;;;32.39;34.14;99667.19;2042115;87;31097;-60
2021/07/01 09:30:14;;;;;;;1.40;1.30;;;;;;;32.35;34.22;99665.96;2042064;86;33846;-61
2021/07/01 09:33:16;;;;;;;;;;;;;;;32.07;33.52;99672.11;2044381;86;30374;-60
2021/07/01 09:36:20;;;;;;;3.98;1.10;;;;;;;31.50;33.72;99680.10;2042278;87;27584;-59
2021/07/01 09:39:24;;;;;;;2.30;1.30;;;;;;;30.96;34.47;99672.28;2042141;87;28764;-62
2021/07/01 09:42:28;;;;;;;1.65;1.55;;;;;;;30.71;34.99;99672.28;2042187;87;31154;-61
2021/07/01 09:45:35;;;;;;;6.62;1.20;;;;;;;30.62;35.68;99668.95;2026765;87;33112;-62
2021/07/01 09:48:46;;;;;;;2.42;1.20;;;;;;;30.35;34.46;99666.34;2042511;86;30449;-63
2021/07/01 09:51:54;;;;;;;3.17;1.20;;;;;;;29.81;35.14;99676.25;2055343;86;27558;-61
2021/07/01 09:55:01;;;;;;;2.05;1.07;;;;;;;29.34;35.44;99676.38;2056147;86;44113;-59
2021/07/01 09:58:11;;;;;;;1.95;1.32;;;;;;;28.89;35.69;99671.53;2056644;86;31060;-61
2021/07/01 10:01:31;;;;;;;4.33;1.50;;;;;;;28.57;36.28;99671.79;2034308;86;34011;-59
2021/07/01 10:04:36;;;;;;;1.52;1.20;;;;;;;28.39;37.02;99665.52;2056620;86;29675;-60
2021/07/01 10:07:48;;;;;;;;;;;;;;;28.29;37.88;99665.92;2058396;86;27572;-59
2021/07/01 10:10:52;;;;;;;5.00;1.27;;;;;;;28.17;37.54;99661.03;2056725;86;28718;-60
2021/07/01 10:13:56;;;;;;;2.85;1.30;;;;;;;28.00;37.55;99664.64;2056543;86;31732;-60
2021/07/01 10:17:06;;;;;;;1.07;1.05;;;;;;;27.86;38.30;99665.13;2056671;86;33792;-60
2021/07/01 10:20:11;;;;;;;1.62;0.93;;;;;;;27.84;38.73;99659.49;2055893;85;29625;-60
2021/07/01 10:23:28;;;;;;;1.37;1.10;;;;;;;27.84;38.14;99658.11;2056767;86;27810;-59
2021/07/01 10:26:34;;;;;;;2.60;1.00;;;;;;;27.71;38.25;99664.44;2055473;85;29297;-61
2021/07/01 10:29:39;;;;;;;2.55;0.93;;;;;;;27.57;38.41;99664.88;2033960;86;31169;-60
2021/07/01 10:32:46;;;;;;;11.93;3.65;;;;;;;27.44;38.75;99666.48;2056600;85;32991;-61
2021/07/01 10:35:49;;;;;;;4.53;2.17;;;;;;;27.35;38.88;99664.09;2056471;86;30516;-61
2021/07/01 10:38:53;;;;;;;1.62;1.40;;;;;;;27.25;39.07;99677.66;2056837;85;27574;-60
2021/07/01 10:42:00;;;;;;;4.15;1.50;;;;;;;27.16;39.22;99677.52;2056370;86;28705;-59
2021/07/01 10:45:12;;;;;;;7.15;2.20;;;;;;;27.10;39.64;99681.91;2033678;86;31219;-59
2021/07/01 10:48:17;;;;;;;1.45;1.35;;;;;;;27.18;39.71;99681.42;2056630;86;33033;-60
2021/07/01 10:51:19;;;;;;;1.30;1.20;;;;;;;27.26;38.99;99684.03;2039847;86;29618;-60
2021/07/01 10:54:22;;;;;;;1.30;1.20;;;;;;;27.20;38.91;99677.44;2036557;87;27567;-59
2021/07/01 10:57:30;;;;;;;3.22;1.72;;;;;;;27.18;39.07;99690.53;2036655;87;28681;-61
2021/07/01 11:00:43;;;;;;;4.95;1.95;;;;;;;27.21;39.49;99692.02;2036561;87;31205;-60
2021/07/01 11:03:46;;;;;;;4.17;1.52;;;;;;;27.23;39.68;99689.93;2036702;87;33070;-61
2021/07/01 11:07:03;;;;;;;7.50;2.08;;;;;;;27.30;39.94;99683.42;2036811;86;29605;-59
2021/07/01 11:10:06;;;;;;;3.37;1.45;;;;;;;27.42;39.82;99678.22;2037034;87;27742;-60
2021/07/01 11:13:10;;;;;;;1.32;0.98;;;;;;;27.64;39.98;99685.55;2022261;87;28752;-60
2021/07/01 11:16:13;;;;;;;1.30;1.20;;;;;;;27.80;39.25;99687.97;2037028;87;31091;-60
2021/07/01 11:19:21;;;;;;;2.05;1.37;;;;;;;27.96;39.74;99685.41;2036855;87;33026;-60
2021/07/01 11:22:46;;;;;;;2.15;1.47;;;;;;;27.98;39.40;99683.27;2036829;87;31229;-59
2021/07/01 11:25:48;;;;;;;;;;;;;;;28.01;39.30;99685.61;2039236;87;27536;-60
2021/07/01 11:28:51;;;;;;;1.55;1.35;;;;;;;27.98;39.51;99686.02;2036841;86;28886;-59
2021/07/01 11:31:53;;;;;;;1.40;1.30;;;;;;;28.00;39.42;99692.17;2037029;87;31022;-59
2021/07/01 11:34:57;;;;;;;2.85;1.10;;;;;;;28.03;39.17;99695.89;2036280;87;33011;-60
2021/07/01 11:37:59;;;;;;;1.30;1.20;;;;;;;28.01;38.93;99691.66;2036890;87;29614;-60
2021/07/01 11:41:04;;;;;;;1.30;1.20;;;;;;;28.05;39.42;99693.79;2036751;87;27578;-60
2021/07/01 11:44:11;;;;;;;;;;;;;;;28.13;39.45;99698.30;2039082;87;28654;-60
2021/07/01 11:47:15;;;;;;;1.42;1.17;;;;;;;28.30;39.30;99693.25;2034075;87;28773;-60
2021/07/01 11:50:17;;;;;;;2.60;2.40;;;;;;;28.47;39.17;99689.59;2040329;86;32929;-58
2021/07/01 11:53:22;;;;;;;9.38;1.50;;;;;;;28.60;38.48;99689.28;2046664;87;29639;-61
2021/07/01 11:56:26;;;;;;;2.15;1.52;;;;;;;28.68;38.55;99688.23;1874951;93;27976;-59
2021/07/01 11:59:31;;;;;;;3.05;1.20;;;;;;;28.74;37.97;99690.20;1900160;93;29316;-59
2021/07/01 12:02:33;;;;;;;5.75;4.35;;;;;;;28.68;38.03;99686.86;1900186;93;31122;-59
2021/07/01 12:05:44;;;;;;;2.45;1.40;;;;;;;28.70;38.35;99685.61;1910160;92;33192;-59
2021/07/01 12:08:46;;;;;;;5.08;1.52;;;;;;;28.66;37.80;99691.22;1929383;92;29577;-59
2021/07/01 12:12:13;;;;;;;2.75;1.12;;;;;;;28.66;38.13;99689.84;1929500;92;27586;-60
2021/07/01 12:15:16;;;;;;;1.75;1.40;;;;;;;28.65;38.01;99690.35;1926813;90;29553;-59
2021/07/01 12:18:18;;;;;;;1.47;1.37;;;;;;;28.61;38.05;99692.37;1929639;92;32192;-59
2021/07/01 12:21:27;;;;;;;3.15;2.55;;;;;;;28.57;38.01;99694.70;1929266;92;33840;-60
2021/07/01 12:24:30;;;;;;;3.87;1.47;;;;;;;28.52;37.95;99699.15;1929459;92;29618;-59
2021/07/01 12:27:32;;;;;;;5.20;1.80;;;;;;;28.49;38.04;99703.16;1928586;92;27614;-70
2021/07/01 12:31:06;;;;;;;1.57;1.30;;;;;;;28.42;37.88;99699.55;1929342;92;28718;-69
2021/07/01 12:34:10;;;;;;;5.28;1.40;;;;;;;28.40;38.04;99703.04;1929584;92;31855;-68
2021/07/01 12:37:13;;;;;;;2.50;1.32;;;;;;;28.33;37.98;99709.37;1929485;92;33109;-60
2021/07/01 12:40:27;;;;;;;4.20;1.85;;;;;;;28.18;37.61;99710.93;1929588;92;29760;-60
2021/07/01 12:43:53;;;;;;;1.87;1.60;;;;;;;28.09;37.58;99709.91;1929475;92;27539;-60
2021/07/01 12:47:00;;;;;;;3.05;1.70;;;;;;;28.06;37.82;99712.52;1929299;92;28720;-60
2021/07/01 12:50:06;;;;;;;3.40;3.10;;;;;;;28.00;38.09;99715.58;1927228;92;31033;-58
2021/07/01 12:53:30;;;;;;;3.75;1.92;;;;;;;27.81;38.31;99714.44;1919347;92;33104;-60
2021/07/01 12:56:38;;;;;;;1.60;1.50;;;;;;;27.68;38.12;99715.75;1832487;97;30587;-59
2021/07/01 12:59:40;;;;;;;2.80;1.62;;;;;;;27.56;38.40;99716.84;1895828;91;27634;-60
2021/07/01 13:03:15;;;;;;;1.87;1.75;;;;;;;27.46;38.64;99724.62;1974568;90;28571;-60
2021/07/01 13:05:55;;;;;;;1.98;1.87;;;;;;;27.41;38.76;99725.16;1921821;91;28040;-60
2021/07/01 13:08:57;;;;;;;1.87;1.75;;;;;;;27.35;38.86;99725.98;1972153;89;33786;-60
2021/07/01 13:12:03;;;;;;;2.25;1.98;;;;;;;27.36;39.17;99730.44;1946861;90;30249;-60
2021/07/01 13:15:20;;;;;;;14.90;2.45;;;;;;;27.37;39.17;99729.39;1982009;89;27700;-63
2021/07/01 13:18:22;;;;;;;2.42;1.67;;;;;;;27.47;39.19;99726.31;1946747;89;28752;-61
2021/07/01 13:21:25;;;;;;;5.92;2.50;;;;;;;27.62;38.85;99720.17;1979805;89;31256;-62
2021/07/01 13:24:28;;;;;;;1.75;1.65;;;;;;;27.78;38.98;99720.89;1980100;89;32943;-61
2021/07/01 13:27:45;;;;;;;2.50;1.80;;;;;;;27.92;38.90;99720.41;1980631;89;29953;-60
2021/07/01 13:30:47;;;;;;;2.08;1.92;;;;;;;28.07;39.02;99718.36;1949159;91;27715;-61
2021/07/01 13:34:05;;;;;;;4.70;2.70;;;;;;;28.17;38.94;99714.73;2018693;87;29636;-61
2021/07/01 13:37:29;;;;;;;4.87;4.30;;;;;;;28.18;38.79;99715.58;2033934;87;30958;-62
2021/07/01 13:40:33;;;;;;;3.65;1.80;;;;;;;28.24;38.92;99724.40;2033653;86;34659;-61
2021/07/01 13:43:35;;;;;;;53.55;4.25;;;;;;;28.29;38.61;99728.77;2001509;88;29630;-60
2021/07/01 13:46:37;;;;;;;4.53;2.55;;;;;;;28.22;38.28;99729.27;2018499;87;27555;-60
2021/07/01 13:49:39;;;;;;;2.05;1.90;;;;;;;28.17;38.50;99716.63;2033875;87;29760;-61
2021/07/01 13:52:45;;;;;;;2.80;2.20;;;;;;;28.22;38.66;99723.75;2039419;87;31115;-62
2021/07/01 13:55:57;;;;;;;2.72;2.22;;;;;;;28.27;38.59;99721.75;2040488;86;33650;-63
2021/07/01 13:59:06;;;;;;;4.70;1.95;;;;;;;28.27;38.63;99718.48;2074421;85;29623;-61
2021/07/01 14:02:21;;;;;;;3.02;2.10;;;;;;;28.19;38.46;99718.14;2048834;85;27559;-62
2021/07/01 14:05:38;;;;;;;4.85;2.17;;;;;;;28.12;38.55;99717.25;2075185;85;28730;-64
2021/07/01 14:08:46;;;;;;;3.22;2.52;;;;;;;28.02;38.73;99712.64;2077082;85;31001;-61
2021/07/01 14:11:48;;;;;;;8.38;4.58;;;;;;;27.83;38.93;99711.47;2040510;86;33983;-61
2021/07/01 14:14:50;;;;;;;8.60;2.40;;;;;;;27.66;38.80;99710.44;2075374;85;30689;-67
2021/07/01 14:17:54;;;;;;;2.65;2.27;;;;;;;27.45;38.84;99722.34;2075411;85;27601;-61
2021/07/01 14:20:57;;;;;;;2.60;2.20;;;;;;;27.25;38.92;99720.30;2075444;85;29513;-61
2021/07/01 14:24:11;;;;;;;3.65;2.83;;;;;;;27.07;39.00;99722.69;2075368;85;30990;-61
2021/07/01 14:27:13;;;;;;;2.42;2.22;;;;;;;26.90;39.40;99720.22;2071668;85;33042;-61
2021/07/01 14:30:34;;;;;;;12.75;11.65;;;;;;;26.74;39.64;99720.45;2075176;85;29710;-60